createdAt,value
2019-03-29T00:01:10.482Z,9.37
2019-03-29T00:03:40.152Z,8.60
2019-03-29T00:06:10.765Z,8.60
2019-03-29T00:08:40.490Z,8.97
2019-03-29T00:11:10.211Z,7.90
2019-03-29T00:13:39.882Z,8.77
2019-03-29T00:16:09.551Z,9.30
2019-03-29T00:18:39.219Z,9.33
2019-03-29T00:21:08.933Z,9.40
2019-03-29T00:23:38.608Z,9.90
2019-03-29T00:26:08.256Z,8.90
2019-03-29T00:28:37.922Z,8.70
2019-03-29T00:31:07.575Z,9.13
2019-03-29T00:33:37.239Z,9.17
2019-03-29T00:36:07.403Z,9.00
2019-03-29T00:38:37.056Z,9.17
2019-03-29T00:41:06.719Z,9.40
2019-03-29T00:43:36.370Z,9.97
2019-03-29T00:46:06.038Z,9.70
2019-03-29T00:48:36.094Z,9.70
2019-03-29T00:51:05.834Z,8.97
2019-03-29T00:53:35.929Z,8.50
2019-03-29T00:56:05.897Z,9.50
2019-03-29T00:58:37.136Z,8.33
2019-03-29T01:01:06.855Z,9.73
2019-03-29T01:03:37.118Z,9.40
2019-03-29T01:06:07.055Z,9.67
2019-03-29T01:08:37.939Z,9.37
2019-03-29T01:11:07.653Z,9.43
2019-03-29T01:13:37.461Z,9.43
2019-03-29T01:16:07.139Z,9.83
2019-03-29T01:18:37.952Z,9.20
2019-03-29T01:21:08.642Z,8.97
2019-03-29T01:23:38.312Z,9.57
2019-03-29T01:26:07.950Z,9.10
2019-03-29T01:28:37.952Z,9.47
2019-03-29T01:31:08.372Z,8.73
2019-03-29T01:33:38.018Z,8.60
2019-03-29T01:36:07.682Z,9.53
2019-03-29T01:38:37.434Z,9.00
2019-03-29T01:41:07.084Z,9.10
2019-03-29T01:43:36.731Z,9.33
2019-03-29T01:46:06.400Z,8.90
2019-03-29T01:48:36.112Z,8.90
2019-03-29T01:51:05.774Z,8.67
2019-03-29T01:53:35.422Z,8.83
2019-03-29T01:56:05.078Z,9.23
2019-03-29T01:58:34.756Z,8.97
2019-03-29T02:01:04.479Z,9.63
2019-03-29T02:03:34.142Z,9.37
2019-03-29T02:06:03.860Z,9.53
2019-03-29T02:08:36.138Z,9.67
2019-03-29T02:11:06.919Z,9.63
2019-03-29T02:13:36.598Z,10.13
2019-03-29T02:16:06.253Z,10.13
2019-03-29T02:18:35.931Z,9.43
2019-03-29T02:21:05.681Z,9.97
2019-03-29T02:23:35.397Z,10.17
2019-03-29T02:26:05.054Z,10.00
2019-03-29T02:28:34.724Z,9.50
2019-03-29T02:31:04.392Z,10.77
2019-03-29T02:33:34.045Z,10.37
2019-03-29T02:36:03.720Z,10.83
2019-03-29T02:38:33.509Z,10.60
2019-03-29T02:41:03.176Z,11.30
2019-03-29T02:43:32.830Z,11.00
2019-03-29T02:46:02.496Z,11.03
2019-03-29T02:48:32.147Z,10.63
2019-03-29T02:51:04.881Z,11.20
2019-03-29T02:53:34.993Z,10.27
2019-03-29T02:56:04.650Z,12.03
2019-03-29T02:58:34.311Z,12.20
2019-03-29T03:01:04.030Z,12.07
2019-03-29T03:03:33.676Z,11.67
2019-03-29T03:06:03.355Z,11.37
2019-03-29T03:08:33.283Z,12.40
2019-03-29T03:11:03.041Z,12.30
2019-03-29T03:13:32.708Z,11.53
2019-03-29T03:16:02.531Z,12.53
2019-03-29T03:18:32.202Z,11.50
2019-03-29T03:21:01.970Z,11.23
2019-03-29T03:23:31.575Z,11.33
2019-03-29T03:26:01.229Z,11.70
2019-03-29T03:28:30.878Z,12.47
2019-03-29T03:31:00.542Z,12.03
2019-03-29T03:33:30.196Z,12.07
2019-03-29T03:35:59.858Z,12.33
2019-03-29T03:38:29.512Z,12.67
2019-03-29T03:40:59.234Z,12.50
2019-03-29T03:43:28.895Z,12.10
2019-03-29T03:45:58.556Z,12.50
2019-03-29T03:48:28.263Z,12.67
2019-03-29T03:50:58.437Z,12.60
2019-03-29T03:53:28.238Z,11.83
2019-03-29T03:56:00.780Z,12.53
2019-03-29T03:58:32.276Z,12.23
2019-03-29T04:01:02.108Z,12.90
2019-03-29T04:03:31.769Z,12.67
2019-03-29T04:06:01.405Z,12.33
2019-03-29T04:08:31.073Z,12.30
2019-03-29T04:11:00.811Z,10.83
2019-03-29T04:13:31.927Z,11.90
2019-03-29T04:16:01.665Z,12.63
2019-03-29T04:18:31.309Z,13.13
2019-03-29T04:21:02.590Z,12.97
2019-03-29T04:23:32.239Z,12.77
2019-03-29T04:26:01.894Z,12.20
2019-03-29T04:28:31.564Z,12.57
2019-03-29T04:31:01.221Z,14.60
2019-03-29T04:33:31.893Z,13.63
2019-03-29T04:36:01.566Z,14.60
2019-03-29T04:38:32.353Z,13.23
2019-03-29T04:41:02.001Z,13.57
2019-03-29T04:43:31.653Z,12.30
2019-03-29T04:46:01.323Z,13.20
2019-03-29T04:48:30.965Z,13.30
2019-03-29T04:51:01.679Z,13.53
2019-03-29T04:53:31.330Z,13.17
2019-03-29T04:56:01.047Z,13.63
2019-03-29T04:58:30.782Z,14.00
2019-03-29T05:01:00.889Z,13.33
2019-03-29T05:03:30.540Z,13.37
2019-03-29T05:06:00.277Z,13.10
2019-03-29T05:08:29.931Z,13.87
2019-03-29T05:10:59.592Z,14.17
2019-03-29T05:13:29.249Z,13.67
2019-03-29T05:15:58.931Z,13.47
2019-03-29T05:18:28.650Z,12.77
2019-03-29T05:20:58.535Z,15.70
2019-03-29T05:23:28.189Z,12.77
2019-03-29T05:25:57.915Z,13.03
2019-03-29T05:28:27.579Z,12.67
2019-03-29T05:30:57.224Z,14.23
2019-03-29T05:33:26.896Z,14.63
2019-03-29T05:35:56.540Z,13.40
2019-03-29T05:38:26.205Z,13.53
2019-03-29T05:40:55.857Z,14.53
2019-03-29T05:43:25.523Z,14.00
2019-03-29T05:45:55.173Z,13.93
2019-03-29T05:48:24.829Z,14.33
2019-03-29T05:50:55.076Z,13.50
2019-03-29T05:53:24.792Z,14.63
2019-03-29T05:55:54.446Z,12.00
2019-03-29T05:58:24.129Z,13.07
2019-03-29T06:00:53.782Z,14.60
2019-03-29T06:03:25.349Z,13.00
2019-03-29T06:05:55.083Z,14.47
2019-03-29T06:08:24.739Z,14.10
2019-03-29T06:10:54.427Z,14.07
2019-03-29T06:13:24.082Z,13.60
2019-03-29T06:15:53.747Z,13.80
2019-03-29T06:18:23.405Z,14.97
2019-03-29T06:20:53.062Z,29.57
2019-03-29T06:23:22.799Z,15.57
2019-03-29T06:25:52.458Z,14.57
2019-03-29T06:28:22.128Z,16.00
2019-03-29T06:30:51.795Z,14.40
2019-03-29T06:33:21.525Z,14.87
2019-03-29T06:35:53.949Z,14.47
2019-03-29T06:38:26.226Z,14.27
2019-03-29T06:41:02.597Z,14.50
2019-03-29T06:43:27.344Z,14.33
2019-03-29T06:45:57.064Z,15.03
2019-03-29T06:48:26.730Z,14.97
2019-03-29T06:50:56.464Z,14.63
2019-03-29T06:53:26.132Z,14.50
2019-03-29T06:55:59.123Z,15.37
2019-03-29T06:58:27.177Z,14.70
2019-03-29T07:00:56.829Z,15.63
2019-03-29T07:03:26.493Z,15.27
2019-03-29T07:05:56.151Z,15.80
2019-03-29T07:08:25.814Z,15.47
2019-03-29T07:10:55.498Z,14.53
2019-03-29T07:13:25.223Z,14.73
2019-03-29T07:15:54.947Z,14.73
2019-03-29T07:18:24.619Z,14.50
2019-03-29T07:20:54.296Z,15.23
2019-03-29T07:23:24.981Z,14.87
2019-03-29T07:25:56.341Z,16.07
2019-03-29T07:28:26.009Z,14.77
2019-03-29T07:30:55.685Z,15.47
2019-03-29T07:33:25.345Z,15.80
2019-03-29T07:35:55.016Z,15.17
2019-03-29T07:38:24.670Z,15.80
2019-03-29T07:40:54.345Z,15.13
2019-03-29T07:43:24.231Z,15.93
2019-03-29T07:45:53.840Z,15.23
2019-03-29T07:48:23.509Z,16.33
2019-03-29T07:50:53.172Z,15.07
2019-03-29T07:53:22.846Z,15.70
2019-03-29T07:55:52.506Z,16.20
2019-03-29T07:58:22.174Z,16.00
2019-03-29T08:00:51.844Z,15.93
2019-03-29T08:03:23.455Z,16.13
2019-03-29T08:05:52.966Z,15.57
2019-03-29T08:08:24.619Z,15.60
2019-03-29T08:10:54.308Z,15.50
2019-03-29T08:13:24.040Z,15.57
2019-03-29T08:15:53.703Z,14.70
2019-03-29T08:18:24.903Z,15.43
2019-03-29T08:20:54.570Z,15.40
2019-03-29T08:23:24.230Z,15.07
2019-03-29T08:25:53.911Z,14.87
2019-03-29T08:28:23.641Z,15.47
2019-03-29T08:30:53.400Z,15.57
2019-03-29T08:33:23.057Z,15.53
2019-03-29T08:35:52.719Z,13.90
2019-03-29T08:38:22.398Z,13.87
2019-03-29T08:40:52.058Z,13.33
2019-03-29T08:43:21.730Z,15.47
2019-03-29T08:45:51.389Z,14.13
2019-03-29T08:48:21.066Z,14.70
2019-03-29T08:50:50.721Z,14.03
2019-03-29T08:53:20.457Z,13.60
2019-03-29T08:55:50.124Z,11.87
2019-03-29T08:58:19.911Z,13.03
2019-03-29T09:00:49.586Z,12.50
2019-03-29T09:03:19.309Z,11.80
2019-03-29T09:05:50.118Z,12.23
2019-03-29T09:08:19.852Z,11.60
2019-03-29T09:10:49.517Z,11.93
2019-03-29T09:13:19.351Z,11.10
2019-03-29T09:15:49.032Z,10.00
2019-03-29T09:18:18.693Z,10.63
2019-03-29T09:20:48.483Z,9.70
2019-03-29T09:23:18.159Z,10.37
2019-03-29T09:25:47.823Z,10.57
2019-03-29T09:28:17.495Z,9.57
2019-03-29T09:30:47.193Z,10.20
2019-03-29T09:33:16.840Z,9.97
2019-03-29T09:35:46.494Z,9.93
2019-03-29T09:38:16.227Z,9.30
2019-03-29T09:40:56.231Z,9.20
2019-03-29T09:43:17.270Z,9.20
2019-03-29T09:45:46.999Z,7.17
2019-03-29T09:48:16.663Z,6.37
2019-03-29T09:50:50.431Z,5.80
2019-03-29T09:53:17.857Z,5.53
2019-03-29T09:55:47.687Z,5.27
2019-03-29T09:58:18.586Z,5.23
2019-03-29T10:00:49.164Z,5.20
2019-03-29T10:03:18.817Z,5.20
2019-03-29T10:05:48.474Z,5.07
2019-03-29T10:08:18.139Z,5.27
2019-03-29T10:10:47.859Z,5.57
2019-03-29T10:13:17.570Z,4.80
2019-03-29T10:15:47.224Z,5.73
2019-03-29T10:18:17.883Z,5.67
2019-03-29T10:20:47.550Z,5.47
2019-03-29T10:23:18.540Z,5.40
2019-03-29T10:25:48.191Z,5.50
2019-03-29T10:28:17.857Z,6.00
2019-03-29T10:30:47.636Z,5.00
2019-03-29T10:33:17.305Z,4.87
2019-03-29T10:35:52.287Z,5.50
2019-03-29T10:38:18.909Z,5.60
2019-03-29T10:40:48.580Z,5.50
2019-03-29T10:43:18.245Z,5.57
2019-03-29T10:45:47.971Z,5.43
2019-03-29T10:48:17.639Z,4.83
2019-03-29T10:50:47.306Z,4.60
2019-03-29T10:53:16.968Z,5.10
2019-03-29T10:55:46.710Z,4.67
2019-03-29T10:58:16.356Z,4.60
2019-03-29T11:00:46.028Z,4.07
2019-03-29T11:03:15.681Z,4.40
2019-03-29T11:05:45.469Z,4.03
2019-03-29T11:08:15.146Z,4.50
2019-03-29T11:10:44.815Z,4.20
2019-03-29T11:13:14.944Z,4.70
2019-03-29T11:15:44.591Z,4.50
2019-03-29T11:18:14.260Z,4.30
2019-03-29T11:20:43.918Z,4.47
2019-03-29T11:23:13.707Z,3.97
2019-03-29T11:25:43.359Z,4.40
2019-03-29T11:28:13.092Z,4.57
2019-03-29T11:30:44.248Z,3.53
2019-03-29T11:33:13.978Z,3.70
2019-03-29T11:35:43.721Z,4.57
2019-03-29T11:38:13.462Z,4.00
2019-03-29T11:40:43.193Z,4.30
2019-03-29T11:43:26.074Z,4.27
2019-03-29T11:45:44.259Z,4.33
2019-03-29T11:48:13.998Z,4.40
2019-03-29T11:50:43.664Z,4.50
2019-03-29T11:53:13.310Z,3.83
2019-03-29T11:55:42.979Z,4.13
2019-03-29T11:58:12.626Z,4.00
2019-03-29T12:00:44.481Z,4.23
2019-03-29T12:03:15.042Z,3.80
2019-03-29T12:05:44.778Z,4.17
2019-03-29T12:08:14.604Z,4.20
2019-03-29T12:10:44.445Z,4.20
2019-03-29T12:13:14.351Z,3.90
2019-03-29T12:15:44.050Z,3.60
2019-03-29T12:18:13.670Z,3.80
2019-03-29T12:20:43.343Z,4.33
2019-03-29T12:23:13.008Z,4.50
2019-03-29T12:25:42.664Z,3.80
2019-03-29T12:28:12.330Z,4.50
2019-03-29T12:30:42.065Z,3.97
2019-03-29T12:33:11.724Z,3.77
2019-03-29T12:35:42.503Z,4.43
2019-03-29T12:38:12.173Z,4.10
2019-03-29T12:40:45.031Z,4.27
2019-03-29T12:43:13.240Z,3.37
2019-03-29T12:45:42.889Z,4.60
2019-03-29T12:48:12.545Z,5.50
2019-03-29T12:50:42.217Z,4.40
2019-03-29T12:53:11.883Z,4.57
2019-03-29T12:55:41.571Z,4.93
2019-03-29T12:58:11.231Z,4.57
2019-03-29T13:00:41.056Z,4.90
2019-03-29T13:03:12.225Z,4.63
2019-03-29T13:05:41.959Z,3.97
2019-03-29T13:08:13.152Z,4.03
2019-03-29T13:10:42.848Z,5.27
2019-03-29T13:13:12.543Z,4.33
2019-03-29T13:15:42.260Z,4.73
2019-03-29T13:18:12.071Z,3.77
2019-03-29T13:20:41.870Z,4.80
2019-03-29T13:23:11.521Z,4.70
2019-03-29T13:25:41.187Z,5.23
2019-03-29T13:28:10.887Z,4.23
2019-03-29T13:30:42.048Z,4.50
2019-03-29T13:33:12.355Z,4.00
2019-03-29T13:35:44.531Z,4.90
2019-03-29T13:38:13.388Z,4.17
2019-03-29T13:40:43.335Z,4.50
2019-03-29T13:43:13.467Z,4.67
2019-03-29T13:45:43.198Z,5.07
2019-03-29T13:48:12.918Z,5.00
2019-03-29T13:50:42.577Z,5.00
2019-03-29T13:53:12.219Z,4.67
2019-03-29T13:55:41.890Z,5.10
2019-03-29T13:58:11.551Z,4.50
2019-03-29T14:00:41.234Z,5.20
2019-03-29T14:03:11.039Z,5.00
2019-03-29T14:05:41.796Z,4.60
2019-03-29T14:08:11.452Z,4.53
2019-03-29T14:10:41.126Z,4.13
2019-03-29T14:13:10.779Z,3.87
2019-03-29T14:15:40.436Z,3.80
2019-03-29T14:18:10.106Z,4.10
2019-03-29T14:20:39.766Z,3.83
2019-03-29T14:23:09.431Z,4.70
2019-03-29T14:25:39.130Z,4.17
2019-03-29T14:28:10.186Z,4.50
2019-03-29T14:30:39.879Z,5.10
2019-03-29T14:33:11.031Z,4.13
2019-03-29T14:35:40.679Z,4.00
2019-03-29T14:38:10.356Z,3.90
2019-03-29T14:40:40.014Z,3.30
2019-03-29T14:43:11.479Z,4.17
2019-03-29T14:45:41.698Z,3.52
2019-03-29T14:48:11.938Z,3.10
2019-03-29T14:50:42.168Z,3.00
2019-03-29T14:53:12.409Z,3.40
2019-03-29T14:55:42.336Z,3.03
2019-03-29T14:58:12.356Z,3.37
2019-03-29T15:00:48.700Z,2.83
2019-03-29T15:03:19.100Z,3.50
2019-03-29T15:05:49.027Z,3.40
2019-03-29T15:08:18.965Z,2.80
2019-03-29T15:10:48.888Z,3.07
2019-03-29T15:13:18.829Z,3.20
2019-03-29T15:15:48.767Z,2.90
2019-03-29T15:18:18.695Z,3.03
2019-03-29T15:20:53.593Z,2.90
2019-03-29T15:23:20.297Z,3.30
2019-03-29T15:25:50.293Z,3.33
2019-03-29T15:28:20.259Z,2.93
2019-03-29T15:30:52.353Z,3.10
2019-03-29T15:33:21.844Z,3.83
2019-03-29T15:35:51.792Z,3.60
2019-03-29T15:38:21.720Z,3.40
2019-03-29T15:40:51.674Z,3.67
2019-03-29T15:43:21.605Z,3.60
2019-03-29T15:45:51.539Z,3.67
2019-03-29T15:48:21.891Z,3.53
2019-03-29T15:50:51.841Z,3.27
2019-03-29T15:53:21.783Z,3.70
2019-03-29T15:55:51.711Z,3.10
2019-03-29T15:58:21.672Z,3.27
2019-03-29T16:00:51.654Z,4.13
2019-03-29T16:03:21.597Z,3.70
2019-03-29T16:05:51.610Z,4.10
2019-03-29T16:08:21.537Z,4.00
2019-03-29T16:10:51.475Z,3.87
2019-03-29T16:13:21.415Z,4.23
2019-03-29T16:15:51.346Z,3.50
2019-03-29T16:18:21.282Z,3.40
2019-03-29T16:20:51.288Z,3.73
2019-03-29T16:23:21.289Z,4.67
2019-03-29T16:25:51.226Z,4.20
2019-03-29T16:28:21.136Z,4.33
2019-03-29T16:30:51.067Z,4.20
2019-03-29T16:33:20.988Z,4.30
2019-03-29T16:35:50.948Z,4.13
2019-03-29T16:38:20.867Z,4.20
2019-03-29T16:40:51.110Z,4.62
2019-03-29T16:43:21.341Z,4.00
2019-03-29T16:45:51.574Z,4.33
2019-03-29T16:48:21.231Z,4.90
2019-03-29T16:50:51.034Z,5.97
2019-03-29T16:53:20.773Z,5.27
2019-03-29T16:55:50.422Z,5.30
2019-03-29T16:58:20.104Z,6.07
2019-03-29T17:00:49.839Z,5.53
2019-03-29T17:03:19.812Z,5.83
2019-03-29T17:05:49.479Z,5.27
2019-03-29T17:08:19.148Z,5.03
2019-03-29T17:10:48.812Z,5.30
2019-03-29T17:13:18.481Z,4.87
2019-03-29T17:16:01.071Z,6.10
2019-03-29T17:18:29.082Z,5.57
2019-03-29T17:20:51.992Z,5.77
2019-03-29T17:23:21.777Z,6.43
2019-03-29T17:25:51.369Z,5.53
2019-03-29T17:28:21.029Z,5.60
2019-03-29T17:30:52.340Z,5.73
2019-03-29T17:33:22.534Z,5.93
2019-03-29T17:35:52.356Z,6.17
2019-03-29T17:38:22.009Z,5.80
2019-03-29T17:40:53.181Z,5.57
2019-03-29T17:43:22.835Z,5.43
2019-03-29T17:45:54.372Z,6.20
2019-03-29T17:48:24.020Z,6.20
2019-03-29T17:50:53.681Z,7.53
2019-03-29T17:53:23.338Z,7.00
2019-03-29T17:55:53.077Z,5.90
2019-03-29T17:58:23.737Z,5.53
2019-03-29T18:00:53.759Z,6.40
2019-03-29T18:03:23.424Z,6.80
2019-03-29T18:05:54.318Z,5.93
2019-03-29T18:08:23.970Z,5.33
2019-03-29T18:10:53.637Z,5.93
2019-03-29T18:13:23.368Z,5.93
2019-03-29T18:15:53.030Z,5.80
2019-03-29T18:18:22.683Z,5.93
2019-03-29T18:20:52.511Z,5.93
2019-03-29T18:23:24.815Z,6.37
2019-03-29T18:25:53.532Z,6.93
2019-03-29T18:28:23.196Z,6.70
2019-03-29T18:30:52.849Z,6.50
2019-03-29T18:33:23.907Z,6.00
2019-03-29T18:35:53.831Z,6.33
2019-03-29T18:38:24.242Z,6.40
2019-03-29T18:40:53.889Z,6.83
2019-03-29T18:43:23.548Z,6.70
2019-03-29T18:45:53.215Z,6.70
2019-03-29T18:48:22.866Z,5.93
2019-03-29T18:50:52.535Z,7.13
2019-03-29T18:53:22.191Z,6.60
2019-03-29T18:55:51.854Z,5.77
2019-03-29T18:58:21.517Z,6.30
2019-03-29T19:00:51.195Z,6.20
2019-03-29T19:03:20.854Z,5.73
2019-03-29T19:05:51.837Z,6.30
2019-03-29T19:08:21.502Z,5.93
2019-03-29T19:10:51.824Z,5.67
2019-03-29T19:13:21.482Z,6.03
2019-03-29T19:15:51.149Z,5.70
2019-03-29T19:18:20.815Z,7.30
2019-03-29T19:20:50.479Z,7.20
2019-03-29T19:23:20.136Z,6.23
2019-03-29T19:25:49.960Z,6.47
2019-03-29T19:28:19.613Z,7.23
2019-03-29T19:30:49.292Z,6.87
2019-03-29T19:33:18.943Z,7.30
2019-03-29T19:35:48.649Z,6.47
2019-03-29T19:38:18.267Z,6.97
2019-03-29T19:40:48.192Z,7.60
2019-03-29T19:43:17.948Z,6.63
2019-03-29T19:45:47.623Z,6.60
2019-03-29T19:48:17.260Z,7.13
2019-03-29T19:50:47.257Z,6.77
2019-03-29T19:53:16.985Z,7.33
2019-03-29T19:55:46.631Z,7.13
2019-03-29T19:58:16.397Z,7.13
2019-03-29T20:00:47.267Z,7.37
2019-03-29T20:03:16.943Z,6.70
2019-03-29T20:05:46.665Z,6.33
2019-03-29T20:08:16.394Z,6.67
2019-03-29T20:10:46.039Z,7.03
2019-03-29T20:13:15.704Z,7.10
2019-03-29T20:15:45.485Z,7.00
2019-03-29T20:18:15.223Z,7.13
2019-03-29T20:20:44.869Z,6.70
2019-03-29T20:23:14.523Z,6.60
2019-03-29T20:25:44.257Z,6.50
2019-03-29T20:28:13.992Z,7.03
2019-03-29T20:30:43.655Z,7.40
2019-03-29T20:33:13.615Z,7.20
2019-03-29T20:35:44.963Z,6.53
2019-03-29T20:38:14.626Z,7.03
2019-03-29T20:40:44.275Z,7.17
2019-03-29T20:43:13.957Z,7.03
2019-03-29T20:45:43.605Z,7.33
2019-03-29T20:48:14.983Z,6.97
2019-03-29T20:50:44.683Z,7.30
2019-03-29T20:53:14.337Z,7.33
2019-03-29T20:55:44.081Z,7.30
2019-03-29T20:58:13.712Z,7.30
2019-03-29T21:00:43.381Z,7.30
2019-03-29T21:03:13.030Z,7.30
2019-03-29T21:05:43.975Z,7.00
2019-03-29T21:08:14.731Z,7.60
2019-03-29T21:10:55.019Z,7.63
2019-03-29T21:13:15.792Z,7.90
2019-03-29T21:15:45.443Z,8.40
2019-03-29T21:18:17.563Z,8.07
2019-03-29T21:20:47.415Z,8.30
2019-03-29T21:23:17.106Z,7.87
2019-03-29T21:25:46.759Z,7.87
2019-03-29T21:28:16.421Z,8.13
2019-03-29T21:30:47.737Z,7.70
2019-03-29T21:33:17.407Z,8.03
2019-03-29T21:35:47.068Z,7.70
2019-03-29T21:38:16.734Z,8.50
2019-03-29T21:40:46.387Z,7.83
2019-03-29T21:43:16.135Z,7.53
2019-03-29T21:45:45.837Z,8.50
2019-03-29T21:48:28.468Z,7.63
2019-03-29T21:50:46.871Z,7.87
2019-03-29T21:53:16.521Z,8.53
2019-03-29T21:55:46.265Z,8.27
2019-03-29T21:58:15.931Z,7.80
2019-03-29T22:00:45.604Z,7.70
2019-03-29T22:03:15.259Z,8.27
2019-03-29T22:05:44.988Z,8.33
2019-03-29T22:08:17.844Z,8.53
2019-03-29T22:10:46.033Z,8.20
2019-03-29T22:13:17.992Z,8.37
2019-03-29T22:15:47.658Z,8.50
2019-03-29T22:18:17.311Z,8.77
2019-03-29T22:20:47.196Z,8.23
2019-03-29T22:23:17.646Z,8.83
2019-03-29T22:25:47.295Z,8.70
2019-03-29T22:28:16.957Z,8.43
2019-03-29T22:30:46.618Z,9.00
2019-03-29T22:33:16.280Z,8.13
2019-03-29T22:35:45.926Z,9.00
2019-03-29T22:38:17.198Z,8.17
2019-03-29T22:40:47.260Z,8.90
2019-03-29T22:43:18.550Z,8.90
2019-03-29T22:45:48.598Z,8.50
2019-03-29T22:48:18.265Z,8.30
2019-03-29T22:50:47.926Z,8.47
2019-03-29T22:53:17.579Z,8.17
2019-03-29T22:55:47.314Z,9.03
2019-03-29T22:58:16.985Z,9.07
2019-03-29T23:00:51.238Z,8.77
2019-03-29T23:03:21.163Z,8.90
2019-03-29T23:05:50.824Z,9.07
2019-03-29T23:08:20.507Z,8.70
2019-03-29T23:10:50.176Z,8.40
2019-03-29T23:13:21.267Z,8.73
2019-03-29T23:15:51.693Z,8.30
2019-03-29T23:18:21.372Z,8.93
2019-03-29T23:20:51.045Z,8.60
2019-03-29T23:23:20.703Z,8.77
2019-03-29T23:25:50.374Z,8.70
2019-03-29T23:28:20.027Z,8.47
2019-03-29T23:30:49.741Z,8.70
2019-03-29T23:33:19.354Z,8.63
2019-03-29T23:35:49.031Z,9.10
2019-03-29T23:38:18.748Z,8.40
2019-03-29T23:40:48.400Z,9.03
2019-03-29T23:43:18.068Z,8.40
2019-03-29T23:45:47.711Z,8.73
2019-03-29T23:48:17.375Z,8.37
2019-03-29T23:50:47.222Z,8.30
2019-03-29T23:53:16.835Z,8.70
2019-03-29T23:55:46.571Z,8.67
2019-03-29T23:58:16.244Z,8.23
